createdAt,value
2019-01-31T00:02:45.312Z,2.41
2019-01-31T00:05:35.552Z,2.29
2019-01-31T00:08:28.928Z,2.26
2019-01-31T00:11:05.347Z,2.26
2019-01-31T00:14:08.888Z,1.96
2019-01-31T00:17:00.261Z,2.10
2019-01-31T00:19:36.535Z,2.07
2019-01-31T00:22:14.519Z,2.31
2019-01-31T00:24:46.952Z,2.19
2019-01-31T00:27:28.107Z,2.14
2019-01-31T00:30:00.641Z,2.26
2019-01-31T00:32:49.926Z,2.54
2019-01-31T00:35:22.429Z,2.33
2019-01-31T00:38:09.771Z,2.21
2019-01-31T00:40:46.095Z,2.03
2019-01-31T00:43:34.594Z,1.99
2019-01-31T00:46:23.414Z,2.16
2019-01-31T00:49:16.815Z,2.06
2019-01-31T00:52:05.385Z,1.68
2019-01-31T00:54:40.756Z,1.85
2019-01-31T00:57:26.093Z,1.48
2019-01-31T01:00:04.061Z,1.70
2019-01-31T01:02:36.561Z,1.75
2019-01-31T01:05:37.845Z,1.37
2019-01-31T01:08:24.318Z,1.88
2019-01-31T01:11:08.775Z,1.66
2019-01-31T01:13:58.745Z,1.94
2019-01-31T01:16:37.673Z,1.85
2019-01-31T01:19:19.738Z,1.69
2019-01-31T01:22:07.581Z,1.76
2019-01-31T01:24:44.028Z,1.74
2019-01-31T01:27:23.006Z,2.00
2019-01-31T01:30:09.444Z,1.79
2019-01-31T01:32:41.924Z,1.78
2019-01-31T01:35:33.342Z,1.43
2019-01-31T01:38:15.687Z,1.15
2019-01-31T01:41:09.459Z,0.96
2019-01-31T01:43:53.489Z,0.87
2019-01-31T01:46:43.658Z,1.11
2019-01-31T01:49:28.896Z,1.14
2019-01-31T01:52:32.887Z,1.30
2019-01-31T01:55:05.294Z,1.12
2019-01-31T01:57:49.576Z,1.19
2019-01-31T02:00:39.710Z,1.35
2019-01-31T02:03:16.152Z,1.17
2019-01-31T02:05:55.523Z,1.47
2019-01-31T02:08:48.734Z,1.38
2019-01-31T02:11:32.975Z,1.48
2019-01-31T02:14:30.363Z,1.61
2019-01-31T02:17:19.261Z,1.76
2019-01-31T02:19:58.490Z,1.72
2019-01-31T02:22:46.572Z,1.75
2019-01-31T02:25:21.549Z,1.69
2019-01-31T02:28:09.853Z,1.63
2019-01-31T02:30:45.128Z,1.95
2019-01-31T02:33:18.508Z,1.87
2019-01-31T02:35:59.759Z,1.53
2019-01-31T02:38:50.280Z,1.61
2019-01-31T02:41:35.877Z,1.70
2019-01-31T02:44:20.061Z,1.88
2019-01-31T02:46:58.466Z,1.71
2019-01-31T02:49:39.809Z,1.89
2019-01-31T02:52:24.575Z,1.59
2019-01-31T02:55:03.885Z,1.81
2019-01-31T02:57:47.372Z,1.31
2019-01-31T03:00:43.774Z,1.23
2019-01-31T03:03:31.535Z,1.24
2019-01-31T03:06:06.797Z,1.36
2019-01-31T03:08:44.852Z,1.71
2019-01-31T03:11:19.989Z,1.61
2019-01-31T03:13:52.423Z,1.42
2019-01-31T03:16:31.606Z,1.45
2019-01-31T03:19:12.873Z,1.33
2019-01-31T03:21:53.934Z,1.34
2019-01-31T03:24:43.984Z,1.13
2019-01-31T03:27:37.454Z,0.96
2019-01-31T03:30:26.205Z,1.05
2019-01-31T03:32:58.650Z,0.97
2019-01-31T03:35:31.081Z,1.15
2019-01-31T03:38:08.415Z,1.14
2019-01-31T03:40:43.844Z,1.06
2019-01-31T03:43:32.193Z,1.11
2019-01-31T03:46:31.113Z,1.35
2019-01-31T03:49:06.995Z,1.39
2019-01-31T03:51:49.038Z,1.46
2019-01-31T03:54:42.970Z,1.31
2019-01-31T03:57:20.977Z,1.38
2019-01-31T03:59:53.452Z,1.70
2019-01-31T04:02:31.870Z,1.44
2019-01-31T04:05:16.189Z,1.54
2019-01-31T04:07:45.417Z,1.31
2019-01-31T04:10:19.052Z,1.28
2019-01-31T04:12:47.544Z,1.06
2019-01-31T04:15:16.840Z,1.33
2019-01-31T04:17:46.093Z,1.23
2019-01-31T04:20:15.336Z,0.87
2019-01-31T04:22:45.629Z,0.88
2019-01-31T04:25:14.851Z,0.77
2019-01-31T04:27:44.100Z,0.96
2019-01-31T04:30:15.191Z,1.09
2019-01-31T04:32:44.459Z,1.22
2019-01-31T04:35:13.775Z,1.09
2019-01-31T04:37:43.111Z,1.00
2019-01-31T04:40:12.360Z,0.99
2019-01-31T04:42:41.620Z,0.88
2019-01-31T04:45:11.311Z,0.95
2019-01-31T04:47:41.658Z,1.12
2019-01-31T04:50:13.430Z,0.85
2019-01-31T04:52:43.192Z,0.69
2019-01-31T04:55:12.542Z,0.86
2019-01-31T04:57:42.881Z,0.89
2019-01-31T05:00:15.558Z,0.78
2019-01-31T05:02:44.805Z,0.94
2019-01-31T05:05:15.138Z,0.53
2019-01-31T05:07:44.501Z,0.69
2019-01-31T05:10:14.127Z,0.84
2019-01-31T05:12:43.579Z,0.53
2019-01-31T05:15:14.171Z,0.88
2019-01-31T05:17:43.527Z,1.00
2019-01-31T05:20:17.628Z,0.50
2019-01-31T05:22:46.941Z,0.72
2019-01-31T05:25:16.345Z,0.49
2019-01-31T05:27:45.581Z,0.52
2019-01-31T05:30:18.547Z,0.53
2019-01-31T05:32:47.931Z,0.94
2019-01-31T05:35:17.163Z,0.90
2019-01-31T05:37:46.518Z,0.76
2019-01-31T05:40:16.746Z,0.89
2019-01-31T05:42:45.952Z,0.84
2019-01-31T05:45:15.927Z,0.86
2019-01-31T05:47:45.178Z,0.99
2019-01-31T05:50:16.276Z,0.37
2019-01-31T05:52:45.601Z,0.39
2019-01-31T05:55:15.100Z,0.97
2019-01-31T05:57:44.339Z,0.69
2019-01-31T06:00:21.658Z,2.33
2019-01-31T06:02:50.958Z,4.92
2019-01-31T06:05:22.747Z,2.56
2019-01-31T06:07:52.312Z,0.84
2019-01-31T06:10:21.532Z,0.84
2019-01-31T06:12:50.822Z,0.70
2019-01-31T06:15:20.123Z,0.72
2019-01-31T06:17:49.381Z,0.98
2019-01-31T06:20:24.847Z,1.10
2019-01-31T06:22:54.162Z,1.27
2019-01-31T06:25:23.399Z,0.63
2019-01-31T06:27:52.685Z,0.27
2019-01-31T06:30:21.907Z,0.38
2019-01-31T06:32:51.150Z,0.38
2019-01-31T06:35:20.512Z,0.45
2019-01-31T06:37:49.731Z,0.67
2019-01-31T06:40:20.719Z,0.52
2019-01-31T06:42:50.100Z,0.80
2019-01-31T06:45:21.177Z,1.01
2019-01-31T06:47:50.511Z,1.19
2019-01-31T06:50:19.757Z,1.57
2019-01-31T06:52:49.019Z,1.33
2019-01-31T06:55:18.325Z,1.11
2019-01-31T06:57:47.582Z,0.99
2019-01-31T07:00:22.062Z,0.85
2019-01-31T07:02:51.580Z,1.18
2019-01-31T07:05:20.880Z,0.87
2019-01-31T07:07:50.130Z,1.02
2019-01-31T07:10:24.926Z,1.28
2019-01-31T07:12:56.078Z,0.96
2019-01-31T07:15:26.288Z,0.59
2019-01-31T07:17:57.534Z,1.11
2019-01-31T07:20:26.765Z,0.97
2019-01-31T07:22:55.995Z,0.99
2019-01-31T07:25:25.603Z,0.88
2019-01-31T07:27:54.886Z,1.08
2019-01-31T07:30:26.753Z,1.28
2019-01-31T07:32:55.413Z,1.16
2019-01-31T07:35:25.626Z,0.98
2019-01-31T07:37:54.832Z,1.23
2019-01-31T07:40:24.065Z,1.22
2019-01-31T07:42:53.300Z,1.62
2019-01-31T07:45:30.979Z,0.93
2019-01-31T07:48:00.265Z,1.18
2019-01-31T07:50:29.496Z,1.19
2019-01-31T07:52:58.730Z,1.27
2019-01-31T07:55:27.977Z,1.26
2019-01-31T07:57:57.196Z,1.25
2019-01-31T08:00:26.626Z,1.22
2019-01-31T08:02:55.857Z,1.22
2019-01-31T08:05:25.674Z,1.69
2019-01-31T08:07:56.661Z,1.47
2019-01-31T08:10:32.411Z,1.28
2019-01-31T08:13:02.617Z,1.79
2019-01-31T08:15:31.940Z,1.70
2019-01-31T08:18:01.180Z,1.75
2019-01-31T08:20:30.402Z,1.87
2019-01-31T08:23:00.275Z,2.12
2019-01-31T08:25:29.622Z,1.98
2019-01-31T08:27:58.919Z,1.63
2019-01-31T08:30:39.834Z,1.79
2019-01-31T08:33:09.985Z,1.84
2019-01-31T08:35:39.292Z,2.36
2019-01-31T08:38:09.539Z,2.37
2019-01-31T08:40:39.799Z,2.39
2019-01-31T08:43:09.037Z,2.08
2019-01-31T08:45:38.274Z,2.49
2019-01-31T08:48:07.665Z,1.97
2019-01-31T08:50:36.926Z,1.85
2019-01-31T08:53:06.163Z,1.59
2019-01-31T08:55:35.394Z,1.44
2019-01-31T08:58:04.825Z,1.63
2019-01-31T09:00:34.079Z,1.93
2019-01-31T09:03:03.387Z,2.26
2019-01-31T09:05:32.706Z,2.16
2019-01-31T09:08:03.875Z,2.18
2019-01-31T09:10:39.366Z,2.09
2019-01-31T09:13:10.144Z,2.75
2019-01-31T09:15:45.240Z,1.97
2019-01-31T09:18:14.506Z,2.18
2019-01-31T09:20:56.622Z,2.30
2019-01-31T09:23:34.635Z,2.28
2019-01-31T09:26:39.831Z,2.50
2019-01-31T09:29:26.936Z,2.54
2019-01-31T09:32:15.615Z,2.52
2019-01-31T09:35:06.893Z,2.61
2019-01-31T09:38:05.681Z,2.71
2019-01-31T09:40:55.480Z,2.50
2019-01-31T09:43:48.528Z,2.50
2019-01-31T09:46:30.180Z,2.26
2019-01-31T09:49:02.589Z,2.58
2019-01-31T09:51:55.710Z,2.51
2019-01-31T09:54:29.013Z,2.56
2019-01-31T09:57:17.378Z,2.54
2019-01-31T10:00:01.424Z,2.48
2019-01-31T10:03:03.204Z,2.75
2019-01-31T10:05:58.298Z,2.73
2019-01-31T10:08:48.552Z,3.08
2019-01-31T10:11:36.469Z,3.11
2019-01-31T10:14:12.683Z,3.02
2019-01-31T10:16:46.915Z,3.28
2019-01-31T10:19:32.922Z,3.48
2019-01-31T10:22:08.433Z,3.21
2019-01-31T10:24:56.600Z,3.43
2019-01-31T10:27:40.804Z,3.34
2019-01-31T10:30:22.823Z,3.43
2019-01-31T10:33:14.480Z,3.90
2019-01-31T10:35:46.889Z,3.91
2019-01-31T10:38:36.945Z,3.79
2019-01-31T10:41:40.690Z,3.67
2019-01-31T10:44:38.155Z,3.90
2019-01-31T10:47:19.073Z,3.72
2019-01-31T10:50:03.243Z,3.57
2019-01-31T10:52:50.610Z,3.93
2019-01-31T10:55:28.923Z,3.71
2019-01-31T10:58:26.234Z,3.98
2019-01-31T11:01:04.449Z,4.10
2019-01-31T11:03:42.460Z,4.18
2019-01-31T11:06:21.466Z,4.48
2019-01-31T11:09:22.455Z,3.83
2019-01-31T11:12:26.199Z,3.88
2019-01-31T11:15:21.429Z,3.82
2019-01-31T11:18:05.569Z,3.73
2019-01-31T11:20:40.723Z,4.27
2019-01-31T11:23:13.131Z,3.86
2019-01-31T11:26:10.993Z,4.09
2019-01-31T11:28:43.410Z,4.01
2019-01-31T11:31:43.954Z,4.38
2019-01-31T11:34:34.429Z,4.08
2019-01-31T11:37:09.340Z,4.22
2019-01-31T11:39:56.581Z,4.04
2019-01-31T11:42:31.592Z,3.76
2019-01-31T11:45:21.834Z,4.24
2019-01-31T11:48:14.859Z,4.04
2019-01-31T11:51:19.835Z,3.50
2019-01-31T11:54:00.984Z,3.89
2019-01-31T11:57:05.337Z,3.98
2019-01-31T11:59:28.379Z,3.99
2019-01-31T12:01:57.635Z,4.12
2019-01-31T12:04:26.886Z,4.20
2019-01-31T12:06:56.118Z,4.13
2019-01-31T12:09:25.387Z,4.24
2019-01-31T12:11:54.668Z,4.20
2019-01-31T12:14:23.988Z,4.56
2019-01-31T12:16:53.354Z,4.61
2019-01-31T12:19:22.686Z,3.94
2019-01-31T12:21:52.935Z,4.25
2019-01-31T12:24:22.179Z,3.97
2019-01-31T12:26:51.412Z,4.15
2019-01-31T12:29:20.669Z,3.91
2019-01-31T12:31:49.918Z,4.38
2019-01-31T12:34:19.159Z,4.63
2019-01-31T12:36:48.399Z,4.54
2019-01-31T12:39:17.666Z,5.18
2019-01-31T12:41:46.907Z,4.16
2019-01-31T12:44:16.158Z,4.13
2019-01-31T12:46:45.469Z,3.83
2019-01-31T12:49:14.760Z,4.15
2019-01-31T12:51:45.030Z,3.91
2019-01-31T12:54:14.280Z,3.48
2019-01-31T12:56:43.525Z,4.02
2019-01-31T12:59:12.734Z,3.63
2019-01-31T13:01:42.136Z,3.85
2019-01-31T13:04:11.362Z,4.08
2019-01-31T13:06:40.609Z,4.20
2019-01-31T13:09:11.291Z,3.75
2019-01-31T13:11:40.526Z,4.31
2019-01-31T13:14:09.761Z,4.36
2019-01-31T13:16:39.029Z,4.30
2019-01-31T13:19:08.247Z,4.53
2019-01-31T13:21:37.479Z,4.43
2019-01-31T13:24:06.879Z,4.32
2019-01-31T13:26:37.070Z,4.56
2019-01-31T13:29:06.369Z,4.66
2019-01-31T13:31:35.596Z,4.00
2019-01-31T13:34:05.067Z,3.77
2019-01-31T13:36:34.313Z,4.20
2019-01-31T13:39:06.823Z,4.41
2019-01-31T13:41:36.392Z,4.12
2019-01-31T13:44:05.622Z,3.52
2019-01-31T13:46:34.870Z,3.65
2019-01-31T13:49:04.186Z,4.01
2019-01-31T13:51:33.425Z,3.99
2019-01-31T13:54:02.666Z,4.10
2019-01-31T13:56:32.912Z,4.32
2019-01-31T13:59:02.167Z,4.60
2019-01-31T14:01:31.402Z,4.15
2019-01-31T14:04:00.645Z,3.63
2019-01-31T14:06:30.867Z,3.76
2019-01-31T14:09:00.109Z,4.12
2019-01-31T14:11:29.362Z,4.49
2019-01-31T14:14:08.803Z,4.65
2019-01-31T14:16:29.535Z,3.88
2019-01-31T14:18:58.763Z,4.01
2019-01-31T14:21:28.022Z,4.35
2019-01-31T14:23:57.263Z,3.78
2019-01-31T14:26:26.505Z,4.20
2019-01-31T14:28:57.646Z,4.31
2019-01-31T14:31:26.930Z,4.54
2019-01-31T14:33:56.240Z,4.04
2019-01-31T14:36:26.543Z,3.95
2019-01-31T14:38:56.716Z,3.94
2019-01-31T14:41:25.940Z,3.80
2019-01-31T14:43:56.003Z,3.87
2019-01-31T14:46:25.301Z,4.30
2019-01-31T14:48:54.559Z,4.42
2019-01-31T14:51:23.842Z,4.49
2019-01-31T14:53:53.089Z,3.82
2019-01-31T14:56:22.348Z,4.18
2019-01-31T14:58:51.602Z,3.50
2019-01-31T15:01:21.830Z,3.70
2019-01-31T15:03:51.593Z,4.15
2019-01-31T15:06:21.986Z,4.12
2019-01-31T15:08:51.230Z,3.69
2019-01-31T15:11:20.497Z,3.77
2019-01-31T15:13:49.748Z,4.11
2019-01-31T15:16:18.994Z,3.95
2019-01-31T15:18:48.232Z,3.97
2019-01-31T15:21:18.419Z,4.19
2019-01-31T15:23:47.670Z,3.89
2019-01-31T15:26:16.922Z,3.32
2019-01-31T15:28:48.137Z,4.13
2019-01-31T15:31:19.304Z,3.91
2019-01-31T15:33:48.551Z,4.14
2019-01-31T15:36:18.698Z,3.96
2019-01-31T15:38:49.979Z,4.25
2019-01-31T15:41:19.253Z,3.72
2019-01-31T15:43:48.499Z,3.76
2019-01-31T15:46:18.081Z,3.83
2019-01-31T15:48:47.417Z,3.57
2019-01-31T15:51:16.749Z,3.78
2019-01-31T15:53:46.972Z,3.96
2019-01-31T15:56:16.222Z,4.06
2019-01-31T15:58:45.477Z,4.39
2019-01-31T16:01:14.763Z,4.47
2019-01-31T16:03:44.114Z,4.07
2019-01-31T16:06:13.352Z,4.10
2019-01-31T16:08:42.611Z,3.91
2019-01-31T16:11:11.840Z,4.11
2019-01-31T16:13:41.120Z,4.06
2019-01-31T16:16:10.361Z,3.92
2019-01-31T16:18:39.639Z,3.98
2019-01-31T16:21:10.809Z,3.75
2019-01-31T16:23:40.080Z,3.92
2019-01-31T16:26:09.334Z,4.03
2019-01-31T16:28:38.860Z,3.96
2019-01-31T16:31:08.110Z,4.05
2019-01-31T16:33:38.487Z,3.83
2019-01-31T16:36:07.751Z,3.63
2019-01-31T16:38:37.004Z,3.59
2019-01-31T16:41:06.258Z,3.67
2019-01-31T16:43:37.508Z,3.32
2019-01-31T16:46:06.829Z,3.52
2019-01-31T16:48:36.138Z,3.69
2019-01-31T16:51:06.409Z,3.18
2019-01-31T16:53:36.653Z,3.42
2019-01-31T16:56:05.901Z,3.34
2019-01-31T16:58:37.153Z,3.22
2019-01-31T17:01:06.540Z,3.55
2019-01-31T17:03:35.793Z,3.66
2019-01-31T17:06:06.095Z,3.40
2019-01-31T17:08:36.269Z,3.19
2019-01-31T17:11:05.532Z,3.22
2019-01-31T17:13:35.788Z,3.49
2019-01-31T17:16:05.108Z,3.18
2019-01-31T17:18:34.410Z,3.12
2019-01-31T17:21:03.688Z,2.83
2019-01-31T17:23:32.940Z,2.91
2019-01-31T17:26:02.277Z,3.02
2019-01-31T17:28:31.517Z,3.32
2019-01-31T17:31:00.796Z,3.13
2019-01-31T17:33:30.047Z,3.16
2019-01-31T17:35:59.304Z,3.15
2019-01-31T17:38:28.542Z,3.07
2019-01-31T17:40:58.817Z,3.46
2019-01-31T17:43:28.053Z,3.22
2019-01-31T17:45:57.476Z,3.20
2019-01-31T17:48:26.721Z,3.28
2019-01-31T17:50:55.972Z,3.26
2019-01-31T17:53:26.256Z,3.64
2019-01-31T17:55:55.517Z,3.45
2019-01-31T17:58:24.757Z,3.51
2019-01-31T18:00:55.647Z,3.19
2019-01-31T18:03:24.940Z,3.36
2019-01-31T18:05:54.183Z,3.50
2019-01-31T18:08:23.433Z,3.37
2019-01-31T18:10:54.572Z,3.42
2019-01-31T18:13:23.886Z,3.52
2019-01-31T18:15:53.130Z,3.07
2019-01-31T18:18:22.397Z,3.20
2019-01-31T18:20:53.707Z,3.01
2019-01-31T18:23:22.975Z,2.63
2019-01-31T18:25:52.210Z,3.06
2019-01-31T18:28:21.462Z,2.75
2019-01-31T18:30:50.722Z,2.88
2019-01-31T18:33:21.910Z,3.18
2019-01-31T18:35:51.149Z,3.05
2019-01-31T18:38:20.403Z,3.06
2019-01-31T18:40:49.657Z,3.00
2019-01-31T18:43:19.498Z,3.08
2019-01-31T18:45:53.399Z,3.02
2019-01-31T18:48:20.660Z,2.33
2019-01-31T18:50:49.914Z,2.86
2019-01-31T18:53:19.185Z,2.88
2019-01-31T18:55:48.490Z,2.69
2019-01-31T18:58:17.742Z,2.83
2019-01-31T19:00:47.434Z,2.77
2019-01-31T19:03:17.123Z,2.81
2019-01-31T19:05:46.735Z,2.87
2019-01-31T19:08:15.972Z,3.03
2019-01-31T19:10:45.204Z,3.08
2019-01-31T19:13:14.443Z,2.88
2019-01-31T19:15:46.265Z,2.85
2019-01-31T19:18:14.667Z,2.69
2019-01-31T19:20:43.989Z,2.65
2019-01-31T19:23:13.367Z,2.55
2019-01-31T19:25:42.628Z,2.16
2019-01-31T19:28:13.290Z,2.32
2019-01-31T19:30:42.815Z,2.66
2019-01-31T19:33:12.123Z,3.86
2019-01-31T19:35:41.381Z,2.91
2019-01-31T19:38:10.694Z,2.82
2019-01-31T19:40:42.713Z,2.36
2019-01-31T19:43:12.026Z,2.13
2019-01-31T19:45:47.055Z,2.58
2019-01-31T19:48:16.843Z,2.75
2019-01-31T19:50:46.099Z,2.47
2019-01-31T19:53:15.577Z,2.60
2019-01-31T19:55:45.774Z,2.40
2019-01-31T19:58:16.064Z,2.41
2019-01-31T20:00:45.300Z,2.42
2019-01-31T20:03:14.621Z,2.20
2019-01-31T20:05:43.847Z,2.04
2019-01-31T20:08:15.121Z,2.40
2019-01-31T20:10:45.315Z,2.13
2019-01-31T20:13:15.548Z,2.47
2019-01-31T20:15:44.835Z,2.26
2019-01-31T20:18:15.070Z,2.61
2019-01-31T20:20:44.390Z,2.42
2019-01-31T20:23:13.627Z,2.46
2019-01-31T20:25:42.887Z,2.07
2019-01-31T20:28:12.190Z,1.67
2019-01-31T20:30:41.432Z,2.16
2019-01-31T20:33:10.673Z,2.21
2019-01-31T20:35:39.994Z,2.50
2019-01-31T20:38:09.326Z,1.83
2019-01-31T20:40:39.704Z,2.27
2019-01-31T20:43:10.214Z,2.52
2019-01-31T20:45:39.534Z,2.31
2019-01-31T20:48:09.046Z,2.54
2019-01-31T20:50:39.225Z,2.46
2019-01-31T20:53:08.543Z,2.38
2019-01-31T20:55:37.845Z,2.50
2019-01-31T20:58:07.188Z,2.44
2019-01-31T21:00:38.928Z,2.46
2019-01-31T21:03:10.538Z,2.49
2019-01-31T21:05:40.147Z,2.49
2019-01-31T21:08:09.836Z,2.14
2019-01-31T21:10:40.104Z,2.37
2019-01-31T21:13:09.333Z,2.48
2019-01-31T21:15:38.649Z,2.43
2019-01-31T21:18:08.950Z,2.22
2019-01-31T21:20:38.284Z,2.24
2019-01-31T21:23:07.889Z,2.29
2019-01-31T21:25:37.151Z,2.42
2019-01-31T21:28:06.474Z,2.17
2019-01-31T21:30:38.148Z,2.15
2019-01-31T21:33:07.476Z,2.12
2019-01-31T21:35:36.874Z,2.24
2019-01-31T21:38:06.187Z,1.74
2019-01-31T21:40:35.727Z,2.23
2019-01-31T21:43:05.362Z,2.08
2019-01-31T21:45:35.620Z,2.15
2019-01-31T21:48:05.704Z,2.38
2019-01-31T21:50:36.872Z,1.81
2019-01-31T21:53:06.441Z,2.09
2019-01-31T21:55:35.698Z,2.32
2019-01-31T21:58:05.206Z,1.81
2019-01-31T22:00:35.488Z,2.00
2019-01-31T22:03:05.523Z,2.27
2019-01-31T22:05:34.855Z,2.34
2019-01-31T22:08:04.510Z,2.53
2019-01-31T22:10:33.808Z,1.41
2019-01-31T22:13:05.226Z,1.91
2019-01-31T22:15:35.624Z,2.04
2019-01-31T22:18:05.793Z,2.34
2019-01-31T22:20:35.018Z,2.00
2019-01-31T22:23:04.554Z,1.98
2019-01-31T22:25:33.784Z,2.34
2019-01-31T22:28:03.033Z,2.47
2019-01-31T22:30:34.432Z,2.35
2019-01-31T22:33:04.559Z,1.82
2019-01-31T22:35:33.804Z,2.52
2019-01-31T22:38:03.047Z,2.28
2019-01-31T22:40:32.308Z,2.59
2019-01-31T22:43:01.570Z,2.36
2019-01-31T22:45:30.812Z,1.55
2019-01-31T22:48:00.061Z,2.27
2019-01-31T22:50:29.322Z,2.53
2019-01-31T22:52:59.541Z,1.99
2019-01-31T22:55:29.736Z,2.33
2019-01-31T22:57:59.052Z,1.88
2019-01-31T23:01:01.169Z,2.37
2019-01-31T23:03:30.382Z,2.20
2019-01-31T23:05:59.623Z,1.93
2019-01-31T23:08:29.834Z,1.91
2019-01-31T23:10:59.063Z,1.93
2019-01-31T23:13:28.302Z,1.99
2019-01-31T23:15:58.582Z,1.78
2019-01-31T23:18:27.828Z,1.66
2019-01-31T23:20:57.120Z,1.89
2019-01-31T23:23:26.372Z,1.98
2019-01-31T23:25:55.632Z,2.37
2019-01-31T23:28:24.900Z,2.10
2019-01-31T23:30:54.139Z,1.93
2019-01-31T23:33:23.384Z,2.37
2019-01-31T23:35:52.627Z,2.53
2019-01-31T23:38:21.879Z,2.46
2019-01-31T23:40:51.198Z,2.17
2019-01-31T23:43:20.436Z,2.44
2019-01-31T23:45:49.677Z,2.09
2019-01-31T23:48:18.932Z,2.13
2019-01-31T23:50:49.174Z,2.56
2019-01-31T23:53:20.402Z,2.34
2019-01-31T23:55:49.633Z,1.40
2019-01-31T23:58:19.821Z,1.70
